Cathay, North Dakota
Current Conditions -  °F | °C
As of 11:15 PM on Wednesday 26 Nov 2014 (Local Time) from K46D Reporting Station
Clear Clear  
Wind Chill: -37°   Ceiling: Unl
Heat Index: -28°   Visibility: 10mi
Dew Point: -30°   Wind: 7mph
Humidity: 84%   Direction: 240°WSW
Pressure: 30.49"   Gusts: NA
Location:  47.55°N, 99.41°W
Report Text: K46D 270515Z AUTO 24006KT 10SM CLR M28/M30 A3049 RMK AO2
Loading
Personal Weather Stations






























Interactive Weather Map New forecast layout! Learn more

10-Day Weather Forecast

Advertisements
Track Severe Weather on mobile